X  Fechar Dados meteorológicos de METAR da aviação     EHEH Eindhoven Airport
Temperatura
3°C Temperatura
1°C Ponto de orvalho
87% Umidade



Vento
5 KM/H
3 MPH
1 M/S
3 NÓS



340°
NNO
Condições atuais

Nuvens esparsas Nuvens esparsas
Pressão 1026.08 (hPa) - 30.3 (inHg)
Visibilidade 6 (milha) - 9.7 (km)
Aeroporto
Código do aeroporto EHEH

Localização: Eindhoven Airport
Distância: 10 (km)

Metar:
EHEH 220325Z AUTO 34003KT 9999 SCT062 SCT069 BKN160 03/01 Q1026 BLU

Hora: 22-04-2024 05:25 CEST